Chandler Field
KAXN : now visible

Airfield :











YOU CAN JOIN US ON...

 
LOGIN :

Register | Disclaimer

   EN    FR    IT 

 









Legend :    VFR   Marginal VFR   IFR   Intensive IFR   Very Intensive IFR
Visi :
Ceiling :
>= 8 km
>= 3000ft
5 to 8 km
1000 to 3000 ft
1500m to 5 km
500 to 1000 ft
800 to 1500m
200 to 500 ft
< 800m
< 200 ft
Symbols :   Thunderstorms  Fog  Heavy snow  Heavy precipitations  Wind > 20 kt






- Airport Elevation : 1425 ft


KAXN - Chandler Field

CURRENT METAR :
  • 281153Z AUTO 03004KT 5SM -SN BR OVC008 M13/M16 A3012 RMK AO2 SNB35 SLP230 P0000 60000 I6000 T11331156 11106 21133 58002

EXPIRED METARs :
  • 281113Z AUTO 01006KT 10SM OVC006 M13/M15 A3011 RMK AO2 T11281150
  • 281053Z AUTO 34005KT 10SM OVC005 M13/M15 A3012 RMK AO2 SLP231 I1000 T11281150
  • 281040Z AUTO 31005KT 10SM OVC005 M13/M15 A3013 RMK AO2 I1000 T11281150
  • 281025Z AUTO 31005KT 10SM OVC004 M13/M15 A3013 RMK AO2 I1000 T11281150
  • 280953Z AUTO 29006KT 6SM BR OVC005 M13/M14 A3012 RMK AO2 SNB0854E09B11E38 SLP232 P0000 T11281144

TAF KAXN
Valid from the 28 at 12:00 until the 29 at 12:00 UTC


281122Z 2812/2912 35004KT P6SM OVC007
FM282200 VRB04KT P6SM OVC012
FM290800 15005KT P6SM OVC009



MET'MAP, your aeronautical weather chart ! - Copyright ORBIFLY December 2007 - Disclaimer

ORBIFLY MET'MAP TEAM :

Programming & Development : Alexandra Zaïnal
Concept & original design : Baudouin d'Aumeries
Assistance for programming : Marc-Olivier Méhu
Technical & hardware support : Manuel Goepfert

Contact : metmap@orbifly.com




SOURCES & CREDITS :

   NOAA       Earth
Advisory